sensor_id;sensor_type;location;lat;lon;timestamp;temperature;humidity
15133;DHT22;7667;51.232;17.110;2022-10-31T00:01:30;8.90;99.90
15133;DHT22;7667;51.232;17.110;2022-10-31T00:04:02;9.00;99.90
15133;DHT22;7667;51.232;17.110;2022-10-31T00:06:30;9.10;99.90
15133;DHT22;7667;51.232;17.110;2022-10-31T00:09:00;8.90;99.90
15133;DHT22;7667;51.232;17.110;2022-10-31T00:11:29;8.70;99.90
15133;DHT22;7667;51.232;17.110;2022-10-31T00:14:00;8.90;99.90
15133;DHT22;7667;51.232;17.110;2022-10-31T00:16:29;9.20;99.90
15133;DHT22;7667;51.232;17.110;2022-10-31T00:18:59;9.20;99.90
15133;DHT22;7667;51.232;17.110;2022-10-31T00:21:29;9.00;99.90
15133;DHT22;7667;51.232;17.110;2022-10-31T00:23:58;8.70;99.90
15133;DHT22;7667;51.232;17.110;2022-10-31T00:26:32;8.50;99.90
15133;DHT22;7667;51.232;17.110;2022-10-31T00:29:00;8.40;99.90
15133;DHT22;7667;51.232;17.110;2022-10-31T00:31:28;8.30;99.90
15133;DHT22;7667;51.232;17.110;2022-10-31T00:33:56;8.20;99.90
15133;DHT22;7667;51.232;17.110;2022-10-31T00:36:24;8.20;99.90
15133;DHT22;7667;51.232;17.110;2022-10-31T00:38:52;8.30;99.90
15133;DHT22;7667;51.232;17.110;2022-10-31T00:41:19;8.60;99.90
15133;DHT22;7667;51.232;17.110;2022-10-31T00:43:47;8.90;99.90
15133;DHT22;7667;51.232;17.110;2022-10-31T00:46:14;9.10;99.90
15133;DHT22;7667;51.232;17.110;2022-10-31T00:48:42;9.20;99.90
15133;DHT22;7667;51.232;17.110;2022-10-31T00:51:10;9.30;99.90
15133;DHT22;7667;51.232;17.110;2022-10-31T00:53:37;9.40;99.90
15133;DHT22;7667;51.232;17.110;2022-10-31T00:56:05;9.30;99.90
15133;DHT22;7667;51.232;17.110;2022-10-31T00:58:33;9.00;99.90
15133;DHT22;7667;51.232;17.110;2022-10-31T01:01:00;8.80;99.90
15133;DHT22;7667;51.232;17.110;2022-10-31T01:03:30;8.70;99.90
15133;DHT22;7667;51.232;17.110;2022-10-31T01:06:05;8.50;99.90
15133;DHT22;7667;51.232;17.110;2022-10-31T01:08:35;8.50;99.90
15133;DHT22;7667;51.232;17.110;2022-10-31T01:13:34;8.50;99.90
15133;DHT22;7667;51.232;17.110;2022-10-31T01:16:03;8.60;99.90
15133;DHT22;7667;51.232;17.110;2022-10-31T01:18:33;8.80;99.90
15133;DHT22;7667;51.232;17.110;2022-10-31T01:21:07;9.00;99.90
15133;DHT22;7667;51.232;17.110;2022-10-31T01:23:36;9.00;99.90
15133;DHT22;7667;51.232;17.110;2022-10-31T01:28:46;9.00;99.90
15133;DHT22;7667;51.232;17.110;2022-10-31T01:31:17;8.90;99.90
15133;DHT22;7667;51.232;17.110;2022-10-31T01:33:46;9.00;99.90
15133;DHT22;7667;51.232;17.110;2022-10-31T01:36:20;9.10;99.90
15133;DHT22;7667;51.232;17.110;2022-10-31T01:38:50;9.10;99.90
15133;DHT22;7667;51.232;17.110;2022-10-31T01:41:21;8.80;99.90
15133;DHT22;7667;51.232;17.110;2022-10-31T01:43:54;8.60;99.90
15133;DHT22;7667;51.232;17.110;2022-10-31T01:46:33;8.40;99.90
15133;DHT22;7667;51.232;17.110;2022-10-31T01:49:09;8.40;99.90
15133;DHT22;7667;51.232;17.110;2022-10-31T01:51:47;8.40;99.90
15133;DHT22;7667;51.232;17.110;2022-10-31T01:54:21;8.30;99.90
15133;DHT22;7667;51.232;17.110;2022-10-31T01:56:53;8.30;99.90
15133;DHT22;7667;51.232;17.110;2022-10-31T01:59:24;8.20;99.90
15133;DHT22;7667;51.232;17.110;2022-10-31T02:01:55;8.20;99.90
15133;DHT22;7667;51.232;17.110;2022-10-31T02:04:24;8.40;99.90
15133;DHT22;7667;51.232;17.110;2022-10-31T02:07:05;8.40;99.90
15133;DHT22;7667;51.232;17.110;2022-10-31T02:09:38;8.30;99.90
15133;DHT22;7667;51.232;17.110;2022-10-31T02:12:09;8.20;99.90
15133;DHT22;7667;51.232;17.110;2022-10-31T02:14:37;8.20;99.90
15133;DHT22;7667;51.232;17.110;2022-10-31T02:17:05;8.10;99.90
15133;DHT22;7667;51.232;17.110;2022-10-31T02:25:18;8.00;99.90
15133;DHT22;7667;51.232;17.110;2022-10-31T02:28:24;8.00;99.90
15133;DHT22;7667;51.232;17.110;2022-10-31T02:36:51;7.90;99.90
15133;DHT22;7667;51.232;17.110;2022-10-31T02:39:33;7.70;99.90
15133;DHT22;7667;51.232;17.110;2022-10-31T02:48:00;8.10;99.90
15133;DHT22;7667;51.232;17.110;2022-10-31T02:50:32;7.90;99.90
15133;DHT22;7667;51.232;17.110;2022-10-31T02:53:02;7.80;99.90
15133;DHT22;7667;51.232;17.110;2022-10-31T02:58:19;7.50;99.90
15133;DHT22;7667;51.232;17.110;2022-10-31T03:03:53;7.30;99.90
15133;DHT22;7667;51.232;17.110;2022-10-31T03:06:33;7.20;99.90
15133;DHT22;7667;51.232;17.110;2022-10-31T03:09:21;7.30;99.90
15133;DHT22;7667;51.232;17.110;2022-10-31T03:11:58;7.40;99.90
15133;DHT22;7667;51.232;17.110;2022-10-31T03:14:56;7.50;99.90
15133;DHT22;7667;51.232;17.110;2022-10-31T03:17:37;7.50;99.90
15133;DHT22;7667;51.232;17.110;2022-10-31T03:20:10;7.70;99.90
15133;DHT22;7667;51.232;17.110;2022-10-31T03:22:39;7.90;99.90
15133;DHT22;7667;51.232;17.110;2022-10-31T03:25:08;7.70;99.90
15133;DHT22;7667;51.232;17.110;2022-10-31T03:27:37;7.70;99.90
15133;DHT22;7667;51.232;17.110;2022-10-31T03:30:07;7.90;99.90
15133;DHT22;7667;51.232;17.110;2022-10-31T03:32:40;7.90;99.90
15133;DHT22;7667;51.232;17.110;2022-10-31T03:35:10;8.00;99.90
15133;DHT22;7667;51.232;17.110;2022-10-31T03:37:40;8.10;99.90
15133;DHT22;7667;51.232;17.110;2022-10-31T03:40:10;8.30;99.90
15133;DHT22;7667;51.232;17.110;2022-10-31T03:42:42;8.30;99.90
15133;DHT22;7667;51.232;17.110;2022-10-31T03:45:23;8.30;99.90
15133;DHT22;7667;51.232;17.110;2022-10-31T03:47:53;8.40;99.90
15133;DHT22;7667;51.232;17.110;2022-10-31T03:50:24;8.50;99.90
15133;DHT22;7667;51.232;17.110;2022-10-31T03:53:11;8.50;99.90
15133;DHT22;7667;51.232;17.110;2022-10-31T03:55:51;8.30;99.90
15133;DHT22;7667;51.232;17.110;2022-10-31T03:58:42;8.10;99.90
15133;DHT22;7667;51.232;17.110;2022-10-31T04:01:22;7.80;99.90
15133;DHT22;7667;51.232;17.110;2022-10-31T04:03:51;7.70;99.90
15133;DHT22;7667;51.232;17.110;2022-10-31T04:06:21;7.50;99.90
15133;DHT22;7667;51.232;17.110;2022-10-31T04:09:03;7.50;99.90
15133;DHT22;7667;51.232;17.110;2022-10-31T04:11:35;7.40;99.90
15133;DHT22;7667;51.232;17.110;2022-10-31T04:14:05;7.50;99.90
15133;DHT22;7667;51.232;17.110;2022-10-31T04:16:34;7.50;99.90
15133;DHT22;7667;51.232;17.110;2022-10-31T04:19:01;7.60;99.90
15133;DHT22;7667;51.232;17.110;2022-10-31T04:21:30;7.60;99.90
15133;DHT22;7667;51.232;17.110;2022-10-31T04:23:57;7.50;99.90
15133;DHT22;7667;51.232;17.110;2022-10-31T04:26:25;7.50;99.90
15133;DHT22;7667;51.232;17.110;2022-10-31T04:28:53;7.60;99.90
15133;DHT22;7667;51.232;17.110;2022-10-31T04:31:21;7.50;99.90
15133;DHT22;7667;51.232;17.110;2022-10-31T04:33:48;7.40;99.90
15133;DHT22;7667;51.232;17.110;2022-10-31T04:36:16;7.50;99.90
15133;DHT22;7667;51.232;17.110;2022-10-31T04:38:43;7.40;99.90
15133;DHT22;7667;51.232;17.110;2022-10-31T04:41:10;7.40;99.90
15133;DHT22;7667;51.232;17.110;2022-10-31T04:43:38;7.30;99.90
15133;DHT22;7667;51.232;17.110;2022-10-31T04:46:05;7.10;99.90
15133;DHT22;7667;51.232;17.110;2022-10-31T04:48:33;7.00;99.90
15133;DHT22;7667;51.232;17.110;2022-10-31T04:51:01;6.90;99.90
15133;DHT22;7667;51.232;17.110;2022-10-31T04:53:29;7.00;99.90
15133;DHT22;7667;51.232;17.110;2022-10-31T04:55:58;7.00;99.90
15133;DHT22;7667;51.232;17.110;2022-10-31T04:58:27;7.00;99.90
15133;DHT22;7667;51.232;17.110;2022-10-31T05:00:55;6.90;99.90
15133;DHT22;7667;51.232;17.110;2022-10-31T05:03:23;6.70;99.90
15133;DHT22;7667;51.232;17.110;2022-10-31T05:05:50;6.50;99.90
15133;DHT22;7667;51.232;17.110;2022-10-31T05:08:18;6.50;99.90
15133;DHT22;7667;51.232;17.110;2022-10-31T05:10:45;6.60;99.90
15133;DHT22;7667;51.232;17.110;2022-10-31T05:13:13;6.60;99.90
15133;DHT22;7667;51.232;17.110;2022-10-31T05:15:42;6.70;99.90
15133;DHT22;7667;51.232;17.110;2022-10-31T05:18:10;6.80;99.90
15133;DHT22;7667;51.232;17.110;2022-10-31T05:20:38;7.00;99.90
15133;DHT22;7667;51.232;17.110;2022-10-31T05:23:05;7.00;99.90
15133;DHT22;7667;51.232;17.110;2022-10-31T05:25:32;7.00;99.90
15133;DHT22;7667;51.232;17.110;2022-10-31T05:28:00;6.90;99.90
15133;DHT22;7667;51.232;17.110;2022-10-31T05:30:31;7.10;99.90
15133;DHT22;7667;51.232;17.110;2022-10-31T05:32:59;7.10;99.90
15133;DHT22;7667;51.232;17.110;2022-10-31T05:35:30;7.10;99.90
15133;DHT22;7667;51.232;17.110;2022-10-31T05:37:59;7.20;99.90
15133;DHT22;7667;51.232;17.110;2022-10-31T05:40:27;7.20;99.90
15133;DHT22;7667;51.232;17.110;2022-10-31T05:42:56;7.10;99.90
15133;DHT22;7667;51.232;17.110;2022-10-31T05:45:25;7.00;99.90
15133;DHT22;7667;51.232;17.110;2022-10-31T05:47:55;6.90;99.90
15133;DHT22;7667;51.232;17.110;2022-10-31T05:50:29;6.90;99.90
15133;DHT22;7667;51.232;17.110;2022-10-31T05:53:02;6.90;99.90
15133;DHT22;7667;51.232;17.110;2022-10-31T05:55:32;7.00;99.90
15133;DHT22;7667;51.232;17.110;2022-10-31T05:58:00;6.90;99.90
15133;DHT22;7667;51.232;17.110;2022-10-31T06:00:28;6.70;99.90
15133;DHT22;7667;51.232;17.110;2022-10-31T06:03:00;6.60;99.90
15133;DHT22;7667;51.232;17.110;2022-10-31T06:05:29;6.60;99.90
15133;DHT22;7667;51.232;17.110;2022-10-31T06:07:57;6.60;99.90
15133;DHT22;7667;51.232;17.110;2022-10-31T06:10:26;6.60;99.90
15133;DHT22;7667;51.232;17.110;2022-10-31T06:12:54;6.70;99.90
15133;DHT22;7667;51.232;17.110;2022-10-31T06:15:21;6.90;99.90
15133;DHT22;7667;51.232;17.110;2022-10-31T06:18:01;7.00;99.90
15133;DHT22;7667;51.232;17.110;2022-10-31T06:20:31;7.20;99.90
15133;DHT22;7667;51.232;17.110;2022-10-31T06:23:00;7.30;99.90
15133;DHT22;7667;51.232;17.110;2022-10-31T06:25:28;7.30;99.90
15133;DHT22;7667;51.232;17.110;2022-10-31T06:27:56;7.40;99.90
15133;DHT22;7667;51.232;17.110;2022-10-31T06:30:24;7.50;99.90
15133;DHT22;7667;51.232;17.110;2022-10-31T06:32:52;7.50;99.90
15133;DHT22;7667;51.232;17.110;2022-10-31T06:35:19;7.50;99.90
15133;DHT22;7667;51.232;17.110;2022-10-31T06:37:52;7.60;99.90
15133;DHT22;7667;51.232;17.110;2022-10-31T06:40:22;7.80;99.90
15133;DHT22;7667;51.232;17.110;2022-10-31T06:43:00;7.90;99.90
15133;DHT22;7667;51.232;17.110;2022-10-31T06:45:28;8.20;99.90
15133;DHT22;7667;51.232;17.110;2022-10-31T06:47:56;8.30;99.90
15133;DHT22;7667;51.232;17.110;2022-10-31T06:50:44;8.40;99.90
15133;DHT22;7667;51.232;17.110;2022-10-31T06:53:12;8.50;99.90
15133;DHT22;7667;51.232;17.110;2022-10-31T06:55:41;8.50;99.90
15133;DHT22;7667;51.232;17.110;2022-10-31T06:58:10;8.60;99.90
15133;DHT22;7667;51.232;17.110;2022-10-31T07:00:38;8.70;99.90
15133;DHT22;7667;51.232;17.110;2022-10-31T07:03:09;8.70;99.90
15133;DHT22;7667;51.232;17.110;2022-10-31T07:05:38;8.80;99.90
15133;DHT22;7667;51.232;17.110;2022-10-31T07:08:08;8.90;99.90
15133;DHT22;7667;51.232;17.110;2022-10-31T07:10:41;9.00;99.90
15133;DHT22;7667;51.232;17.110;2022-10-31T07:13:14;9.10;99.90
15133;DHT22;7667;51.232;17.110;2022-10-31T07:15:43;9.30;99.90
15133;DHT22;7667;51.232;17.110;2022-10-31T07:18:11;9.40;99.90
15133;DHT22;7667;51.232;17.110;2022-10-31T07:20:39;9.60;99.90
15133;DHT22;7667;51.232;17.110;2022-10-31T07:23:09;9.80;99.90
15133;DHT22;7667;51.232;17.110;2022-10-31T07:25:41;10.00;99.90
15133;DHT22;7667;51.232;17.110;2022-10-31T07:28:09;10.20;99.90
15133;DHT22;7667;51.232;17.110;2022-10-31T07:30:37;10.30;99.90
15133;DHT22;7667;51.232;17.110;2022-10-31T07:33:05;10.40;99.90
15133;DHT22;7667;51.232;17.110;2022-10-31T07:35:33;10.50;99.90
15133;DHT22;7667;51.232;17.110;2022-10-31T07:38:09;10.60;99.90
15133;DHT22;7667;51.232;17.110;2022-10-31T07:40:38;10.70;99.90
15133;DHT22;7667;51.232;17.110;2022-10-31T07:43:06;10.70;99.90
15133;DHT22;7667;51.232;17.110;2022-10-31T07:45:39;10.90;99.90
15133;DHT22;7667;51.232;17.110;2022-10-31T07:48:07;11.00;99.90
15133;DHT22;7667;51.232;17.110;2022-10-31T07:50:34;11.20;99.90
15133;DHT22;7667;51.232;17.110;2022-10-31T07:53:04;11.30;99.90
15133;DHT22;7667;51.232;17.110;2022-10-31T07:55:36;11.40;99.90
15133;DHT22;7667;51.232;17.110;2022-10-31T07:58:06;11.60;99.90
15133;DHT22;7667;51.232;17.110;2022-10-31T08:00:36;11.90;99.90
15133;DHT22;7667;51.232;17.110;2022-10-31T08:03:07;12.20;99.90
15133;DHT22;7667;51.232;17.110;2022-10-31T08:05:36;12.30;99.90
15133;DHT22;7667;51.232;17.110;2022-10-31T08:08:04;12.40;99.90
15133;DHT22;7667;51.232;17.110;2022-10-31T08:10:33;12.50;99.90
15133;DHT22;7667;51.232;17.110;2022-10-31T08:15:31;12.60;99.90
15133;DHT22;7667;51.232;17.110;2022-10-31T08:18:00;12.80;99.90
15133;DHT22;7667;51.232;17.110;2022-10-31T08:20:29;12.80;99.90
15133;DHT22;7667;51.232;17.110;2022-10-31T08:23:03;12.90;99.90
15133;DHT22;7667;51.232;17.110;2022-10-31T08:25:32;13.00;99.90
15133;DHT22;7667;51.232;17.110;2022-10-31T08:28:05;13.10;99.90
15133;DHT22;7667;51.232;17.110;2022-10-31T08:30:35;13.20;99.90
15133;DHT22;7667;51.232;17.110;2022-10-31T08:35:39;13.70;99.90
15133;DHT22;7667;51.232;17.110;2022-10-31T08:38:07;13.90;99.90
15133;DHT22;7667;51.232;17.110;2022-10-31T08:40:36;14.20;99.90
15133;DHT22;7667;51.232;17.110;2022-10-31T08:43:12;14.30;99.90
15133;DHT22;7667;51.232;17.110;2022-10-31T08:45:41;14.40;99.90
15133;DHT22;7667;51.232;17.110;2022-10-31T08:48:11;14.50;99.90
15133;DHT22;7667;51.232;17.110;2022-10-31T08:50:40;14.50;99.90
15133;DHT22;7667;51.232;17.110;2022-10-31T08:53:14;14.70;99.90
15133;DHT22;7667;51.232;17.110;2022-10-31T08:55:44;14.80;99.90
15133;DHT22;7667;51.232;17.110;2022-10-31T08:58:14;15.00;99.90
15133;DHT22;7667;51.232;17.110;2022-10-31T09:00:44;15.20;99.90
15133;DHT22;7667;51.232;17.110;2022-10-31T09:15:39;15.60;99.90
15133;DHT22;7667;51.232;17.110;2022-10-31T09:18:08;15.80;99.90
15133;DHT22;7667;51.232;17.110;2022-10-31T09:20:36;15.80;99.90
15133;DHT22;7667;51.232;17.110;2022-10-31T09:23:07;15.90;99.90
15133;DHT22;7667;51.232;17.110;2022-10-31T09:25:37;16.00;99.90
15133;DHT22;7667;51.232;17.110;2022-10-31T09:28:07;16.00;99.90
15133;DHT22;7667;51.232;17.110;2022-10-31T09:30:37;16.20;99.90
15133;DHT22;7667;51.232;17.110;2022-10-31T09:33:10;16.30;99.90
15133;DHT22;7667;51.232;17.110;2022-10-31T09:35:40;16.50;99.90
15133;DHT22;7667;51.232;17.110;2022-10-31T09:38:12;16.50;99.90
15133;DHT22;7667;51.232;17.110;2022-10-31T09:47:22;17.00;99.90
15133;DHT22;7667;51.232;17.110;2022-10-31T09:52:51;17.30;99.90
15133;DHT22;7667;51.232;17.110;2022-10-31T09:55:36;17.30;99.90
15133;DHT22;7667;51.232;17.110;2022-10-31T09:58:16;17.50;99.90
15133;DHT22;7667;51.232;17.110;2022-10-31T10:00:48;17.60;99.90
15133;DHT22;7667;51.232;17.110;2022-10-31T10:06:19;18.00;99.90
15133;DHT22;7667;51.232;17.110;2022-10-31T10:08:49;18.20;99.90
15133;DHT22;7667;51.232;17.110;2022-10-31T10:17:38;18.30;99.90
15133;DHT22;7667;51.232;17.110;2022-10-31T10:21:31;18.50;99.90
15133;DHT22;7667;51.232;17.110;2022-10-31T10:30:13;18.50;99.90
15133;DHT22;7667;51.232;17.110;2022-10-31T10:32:58;18.60;99.90
15133;DHT22;7667;51.232;17.110;2022-10-31T10:35:49;18.60;99.90
15133;DHT22;7667;51.232;17.110;2022-10-31T10:38:37;18.60;99.90
15133;DHT22;7667;51.232;17.110;2022-10-31T10:41:18;18.60;99.90
15133;DHT22;7667;51.232;17.110;2022-10-31T10:43:50;18.90;99.90
15133;DHT22;7667;51.232;17.110;2022-10-31T10:49:31;18.70;99.90
15133;DHT22;7667;51.232;17.110;2022-10-31T10:58:12;19.10;99.90
15133;DHT22;7667;51.232;17.110;2022-10-31T11:00:45;19.20;99.90
15133;DHT22;7667;51.232;17.110;2022-10-31T11:03:15;19.40;99.90
15133;DHT22;7667;51.232;17.110;2022-10-31T11:05:54;19.40;99.90
15133;DHT22;7667;51.232;17.110;2022-10-31T11:08:35;19.60;99.90
15133;DHT22;7667;51.232;17.110;2022-10-31T11:11:31;19.60;99.90
15133;DHT22;7667;51.232;17.110;2022-10-31T11:14:12;19.50;99.90
15133;DHT22;7667;51.232;17.110;2022-10-31T11:16:48;19.40;99.90
15133;DHT22;7667;51.232;17.110;2022-10-31T11:19:23;19.40;99.90
15133;DHT22;7667;51.232;17.110;2022-10-31T11:21:53;19.70;99.90
15133;DHT22;7667;51.232;17.110;2022-10-31T11:24:23;19.90;99.90
15133;DHT22;7667;51.232;17.110;2022-10-31T11:27:21;20.00;99.90
15133;DHT22;7667;51.232;17.110;2022-10-31T11:29:50;20.00;99.90
15133;DHT22;7667;51.232;17.110;2022-10-31T11:32:26;20.00;99.90
15133;DHT22;7667;51.232;17.110;2022-10-31T11:34:58;19.90;99.90
15133;DHT22;7667;51.232;17.110;2022-10-31T11:37:30;20.00;99.90
15133;DHT22;7667;51.232;17.110;2022-10-31T11:40:05;19.90;99.90
15133;DHT22;7667;51.232;17.110;2022-10-31T11:42:41;20.10;99.90
15133;DHT22;7667;51.232;17.110;2022-10-31T11:45:27;20.20;99.90
15133;DHT22;7667;51.232;17.110;2022-10-31T11:47:58;20.10;99.90
15133;DHT22;7667;51.232;17.110;2022-10-31T11:50:37;20.20;99.90
15133;DHT22;7667;51.232;17.110;2022-10-31T11:53:20;20.20;99.90
15133;DHT22;7667;51.232;17.110;2022-10-31T11:56:13;20.20;99.90
15133;DHT22;7667;51.232;17.110;2022-10-31T11:58:42;20.40;99.90
15133;DHT22;7667;51.232;17.110;2022-10-31T12:01:39;20.40;99.90
15133;DHT22;7667;51.232;17.110;2022-10-31T12:04:11;20.80;99.90
15133;DHT22;7667;51.232;17.110;2022-10-31T12:06:44;21.10;99.90
15133;DHT22;7667;51.232;17.110;2022-10-31T12:12:19;21.50;99.90
15133;DHT22;7667;51.232;17.110;2022-10-31T12:15:30;21.80;99.90
15133;DHT22;7667;51.232;17.110;2022-10-31T12:24:04;22.80;99.90
15133;DHT22;7667;51.232;17.110;2022-10-31T12:44:05;23.30;99.90
15133;DHT22;7667;51.232;17.110;2022-10-31T12:49:39;23.40;99.90
15133;DHT22;7667;51.232;17.110;2022-10-31T12:55:06;24.40;99.90
15133;DHT22;7667;51.232;17.110;2022-10-31T12:57:52;24.60;99.90
15133;DHT22;7667;51.232;17.110;2022-10-31T13:00:21;24.90;99.90
15133;DHT22;7667;51.232;17.110;2022-10-31T13:03:23;25.10;99.90
15133;DHT22;7667;51.232;17.110;2022-10-31T13:06:02;25.70;97.60
15133;DHT22;7667;51.232;17.110;2022-10-31T13:08:47;25.80;95.60
15133;DHT22;7667;51.232;17.110;2022-10-31T13:11:22;24.80;97.00
15133;DHT22;7667;51.232;17.110;2022-10-31T13:14:10;24.30;99.30
15133;DHT22;7667;51.232;17.110;2022-10-31T13:17:01;24.40;98.80
15133;DHT22;7667;51.232;17.110;2022-10-31T13:19:36;24.70;98.30
15133;DHT22;7667;51.232;17.110;2022-10-31T13:22:33;25.20;96.70
15133;DHT22;7667;51.232;17.110;2022-10-31T13:30:22;25.30;95.90
15133;DHT22;7667;51.232;17.110;2022-10-31T13:33:15;25.40;96.20
15133;DHT22;7667;51.232;17.110;2022-10-31T13:38:48;26.70;92.70
15133;DHT22;7667;51.232;17.110;2022-10-31T13:41:26;26.80;91.00
15133;DHT22;7667;51.232;17.110;2022-10-31T13:44:28;26.20;91.50
15133;DHT22;7667;51.232;17.110;2022-10-31T13:47:17;25.90;92.00
15133;DHT22;7667;51.232;17.110;2022-10-31T13:49:51;26.10;92.00
15133;DHT22;7667;51.232;17.110;2022-10-31T13:52:24;25.90;91.70
15133;DHT22;7667;51.232;17.110;2022-10-31T13:54:53;25.70;91.90
15133;DHT22;7667;51.232;17.110;2022-10-31T13:57:30;25.60;92.40
15133;DHT22;7667;51.232;17.110;2022-10-31T14:02:49;26.00;92.00
15133;DHT22;7667;51.232;17.110;2022-10-31T14:05:32;26.30;90.90
15133;DHT22;7667;51.232;17.110;2022-10-31T14:08:05;25.70;90.90
15133;DHT22;7667;51.232;17.110;2022-10-31T14:10:37;25.50;91.80
15133;DHT22;7667;51.232;17.110;2022-10-31T14:16:06;25.30;92.60
15133;DHT22;7667;51.232;17.110;2022-10-31T14:18:51;24.80;93.50
15133;DHT22;7667;51.232;17.110;2022-10-31T14:21:44;24.00;95.30
15133;DHT22;7667;51.232;17.110;2022-10-31T14:29:32;23.60;98.50
15133;DHT22;7667;51.232;17.110;2022-10-31T14:34:42;24.40;97.10
15133;DHT22;7667;51.232;17.110;2022-10-31T14:51:38;22.80;99.90
15133;DHT22;7667;51.232;17.110;2022-10-31T14:54:18;22.40;99.90
15133;DHT22;7667;51.232;17.110;2022-10-31T14:56:54;22.00;99.90
15133;DHT22;7667;51.232;17.110;2022-10-31T14:59:30;21.50;99.90
15133;DHT22;7667;51.232;17.110;2022-10-31T15:02:08;20.90;99.90
15133;DHT22;7667;51.232;17.110;2022-10-31T15:04:40;20.10;99.90
15133;DHT22;7667;51.232;17.110;2022-10-31T15:07:18;19.40;99.90
15133;DHT22;7667;51.232;17.110;2022-10-31T15:10:21;18.90;99.90
15133;DHT22;7667;51.232;17.110;2022-10-31T15:12:51;18.40;99.90
15133;DHT22;7667;51.232;17.110;2022-10-31T15:15:22;18.10;99.90
15133;DHT22;7667;51.232;17.110;2022-10-31T15:17:59;17.80;99.90
15133;DHT22;7667;51.232;17.110;2022-10-31T15:20:29;17.40;99.90
15133;DHT22;7667;51.232;17.110;2022-10-31T15:23:16;17.10;99.90
15133;DHT22;7667;51.232;17.110;2022-10-31T15:25:47;16.80;99.90
15133;DHT22;7667;51.232;17.110;2022-10-31T15:28:21;16.60;99.90
15133;DHT22;7667;51.232;17.110;2022-10-31T15:30:55;16.40;99.90
15133;DHT22;7667;51.232;17.110;2022-10-31T15:33:28;16.10;99.90
15133;DHT22;7667;51.232;17.110;2022-10-31T15:36:04;15.80;99.90
15133;DHT22;7667;51.232;17.110;2022-10-31T15:38:32;15.60;99.90
15133;DHT22;7667;51.232;17.110;2022-10-31T15:42:01;15.50;99.90
15133;DHT22;7667;51.232;17.110;2022-10-31T15:44:15;15.50;99.90
15133;DHT22;7667;51.232;17.110;2022-10-31T15:46:58;15.40;99.90
15133;DHT22;7667;51.232;17.110;2022-10-31T15:49:38;15.20;99.90
15133;DHT22;7667;51.232;17.110;2022-10-31T15:57:53;14.40;99.90
15133;DHT22;7667;51.232;17.110;2022-10-31T16:00:26;14.30;99.90
15133;DHT22;7667;51.232;17.110;2022-10-31T16:03:06;14.20;99.90
15133;DHT22;7667;51.232;17.110;2022-10-31T16:05:45;14.10;99.90
15133;DHT22;7667;51.232;17.110;2022-10-31T16:13:40;13.50;99.90
15133;DHT22;7667;51.232;17.110;2022-10-31T16:16:16;13.30;99.90
15133;DHT22;7667;51.232;17.110;2022-10-31T16:19:03;13.10;99.90
15133;DHT22;7667;51.232;17.110;2022-10-31T16:21:37;12.90;99.90
15133;DHT22;7667;51.232;17.110;2022-10-31T16:24:26;12.80;99.90
15133;DHT22;7667;51.232;17.110;2022-10-31T16:27:04;12.60;99.90
15133;DHT22;7667;51.232;17.110;2022-10-31T16:29:41;12.40;99.90
15133;DHT22;7667;51.232;17.110;2022-10-31T16:33:19;12.20;99.90
15133;DHT22;7667;51.232;17.110;2022-10-31T16:35:34;12.10;99.90
15133;DHT22;7667;51.232;17.110;2022-10-31T16:38:04;12.00;99.90
15133;DHT22;7667;51.232;17.110;2022-10-31T16:40:32;11.80;99.90
15133;DHT22;7667;51.232;17.110;2022-10-31T16:43:00;11.70;99.90
15133;DHT22;7667;51.232;17.110;2022-10-31T16:45:31;11.70;99.90
15133;DHT22;7667;51.232;17.110;2022-10-31T16:48:06;11.60;99.90
15133;DHT22;7667;51.232;17.110;2022-10-31T16:50:37;11.60;99.90
15133;DHT22;7667;51.232;17.110;2022-10-31T16:53:05;11.70;99.90
15133;DHT22;7667;51.232;17.110;2022-10-31T16:56:01;11.60;99.90
15133;DHT22;7667;51.232;17.110;2022-10-31T16:58:34;11.50;99.90
15133;DHT22;7667;51.232;17.110;2022-10-31T17:01:05;11.50;99.90
15133;DHT22;7667;51.232;17.110;2022-10-31T17:03:33;11.50;99.90
15133;DHT22;7667;51.232;17.110;2022-10-31T17:06:01;11.50;99.90
15133;DHT22;7667;51.232;17.110;2022-10-31T17:08:28;11.50;99.90
15133;DHT22;7667;51.232;17.110;2022-10-31T17:10:58;11.60;99.90
15133;DHT22;7667;51.232;17.110;2022-10-31T17:13:28;11.70;99.90
15133;DHT22;7667;51.232;17.110;2022-10-31T17:15:59;11.80;99.90
15133;DHT22;7667;51.232;17.110;2022-10-31T17:18:27;11.80;99.90
15133;DHT22;7667;51.232;17.110;2022-10-31T17:21:00;11.80;99.90
15133;DHT22;7667;51.232;17.110;2022-10-31T17:23:29;11.80;99.90
15133;DHT22;7667;51.232;17.110;2022-10-31T17:25:56;11.70;99.90
15133;DHT22;7667;51.232;17.110;2022-10-31T17:28:24;11.60;99.90
15133;DHT22;7667;51.232;17.110;2022-10-31T17:30:55;11.40;99.90
15133;DHT22;7667;51.232;17.110;2022-10-31T17:33:24;11.40;99.90
15133;DHT22;7667;51.232;17.110;2022-10-31T17:35:51;11.40;99.90
15133;DHT22;7667;51.232;17.110;2022-10-31T17:38:19;11.30;99.90
15133;DHT22;7667;51.232;17.110;2022-10-31T17:40:46;11.30;99.90
15133;DHT22;7667;51.232;17.110;2022-10-31T17:43:19;11.20;99.90
15133;DHT22;7667;51.232;17.110;2022-10-31T17:45:46;11.20;99.90
15133;DHT22;7667;51.232;17.110;2022-10-31T17:48:14;11.20;99.90
15133;DHT22;7667;51.232;17.110;2022-10-31T17:50:41;11.10;99.90
15133;DHT22;7667;51.232;17.110;2022-10-31T17:53:08;11.00;99.90
15133;DHT22;7667;51.232;17.110;2022-10-31T17:55:36;10.90;99.90
15133;DHT22;7667;51.232;17.110;2022-10-31T17:58:04;10.90;99.90
15133;DHT22;7667;51.232;17.110;2022-10-31T18:00:32;10.90;99.90
15133;DHT22;7667;51.232;17.110;2022-10-31T18:03:01;10.80;99.90
15133;DHT22;7667;51.232;17.110;2022-10-31T18:05:30;10.80;99.90
15133;DHT22;7667;51.232;17.110;2022-10-31T18:07:59;10.80;99.90
15133;DHT22;7667;51.232;17.110;2022-10-31T18:10:30;10.70;99.90
15133;DHT22;7667;51.232;17.110;2022-10-31T18:12:59;10.60;99.90
15133;DHT22;7667;51.232;17.110;2022-10-31T18:15:27;10.60;99.90
15133;DHT22;7667;51.232;17.110;2022-10-31T18:17:54;10.40;99.90
15133;DHT22;7667;51.232;17.110;2022-10-31T18:20:22;10.30;99.90
15133;DHT22;7667;51.232;17.110;2022-10-31T18:22:49;10.30;99.90
15133;DHT22;7667;51.232;17.110;2022-10-31T18:25:17;10.10;99.90
15133;DHT22;7667;51.232;17.110;2022-10-31T18:27:44;10.00;99.90
15133;DHT22;7667;51.232;17.110;2022-10-31T18:30:12;10.00;99.90
15133;DHT22;7667;51.232;17.110;2022-10-31T18:32:39;10.20;99.90
15133;DHT22;7667;51.232;17.110;2022-10-31T18:35:07;10.40;99.90
15133;DHT22;7667;51.232;17.110;2022-10-31T18:37:34;10.40;99.90
15133;DHT22;7667;51.232;17.110;2022-10-31T18:40:02;10.20;99.90
15133;DHT22;7667;51.232;17.110;2022-10-31T18:42:30;10.20;99.90
15133;DHT22;7667;51.232;17.110;2022-10-31T18:44:57;10.20;99.90
15133;DHT22;7667;51.232;17.110;2022-10-31T18:47:45;10.20;99.90
15133;DHT22;7667;51.232;17.110;2022-10-31T18:50:12;10.30;99.90
15133;DHT22;7667;51.232;17.110;2022-10-31T18:52:40;10.30;99.90
15133;DHT22;7667;51.232;17.110;2022-10-31T18:55:08;10.40;99.90